Time;durP1;ratioP1;P1;durP2;ratioP2;P2;SDS_P1;SDS_P2;PMS_P1;PMS_P2;Temp;Humidity;BMP_temperature;BMP_pressure;BME280_temperature;BME280_humidity;BME280_pressure;Samples;Min_cycle;Max_cycle;Signal;HPM_P1;HPM_P2
2023/08/20 00:00:47;;;;;;;21.02;9.77;;;;;;;;;;4952976;28;20046;-89
2023/08/20 00:03:14;;;;;;;16.58;9.13;;;;;;;;;;4950075;29;20051;-91
2023/08/20 00:05:42;;;;;;;15.40;8.27;;;;;;;;;;4969481;29;20051;-90
2023/08/20 00:08:16;;;;;;;15.43;7.00;;;;;;;;;;4970274;29;20075;-90
2023/08/20 00:10:47;;;;;;;13.82;7.22;;;;;;;;;;4969698;29;20051;-90
2023/08/20 00:13:17;;;;;;;14.35;8.68;;;;;;;;;;4952877;28;20047;-90
2023/08/20 00:15:44;;;;;;;13.30;6.75;;;;;;;;;;4952400;29;20133;-91
2023/08/20 00:18:21;;;;;;;14.80;8.43;;;;;;;;;;4950677;29;20062;-90
2023/08/20 00:20:51;;;;;;;16.73;8.98;;;;;;;;;;4967304;29;20082;-90
2023/08/20 00:23:22;;;;;;;13.93;7.30;;;;;;;;;;4966044;29;20121;-90
2023/08/20 00:25:50;;;;;;;15.38;8.07;;;;;;;;;;4966318;29;20051;-90
2023/08/20 00:28:19;;;;;;;18.17;8.57;;;;;;;;;;4949505;29;20079;-90
2023/08/20 00:30:49;;;;;;;15.48;7.95;;;;;;;;;;4946243;29;20238;-86
2023/08/20 00:33:29;;;;;;;11.32;7.07;;;;;;;;;;4947437;29;20062;-88
2023/08/20 00:36:00;;;;;;;14.35;7.63;;;;;;;;;;4950646;29;20055;-90
2023/08/20 00:38:27;;;;;;;17.00;7.88;;;;;;;;;;4963751;29;20059;-90
2023/08/20 00:40:59;;;;;;;14.38;7.70;;;;;;;;;;4964385;29;20051;-89
2023/08/20 00:43:26;;;;;;;17.95;6.35;;;;;;;;;;4947725;29;20415;-90
2023/08/20 00:45:55;;;;;;;7.63;5.82;;;;;;;;;;4961827;29;20065;-90
2023/08/20 00:48:33;;;;;;;12.35;6.60;;;;;;;;;;4946891;29;20051;-89
2023/08/20 00:51:02;;;;;;;14.18;6.82;;;;;;;;;;4947150;29;20427;-90
2023/08/20 00:53:30;;;;;;;17.92;7.10;;;;;;;;;;4947769;29;20438;-91
2023/08/20 00:56:02;;;;;;;14.63;6.55;;;;;;;;;;4946801;28;20058;-90
2023/08/20 00:58:32;;;;;;;19.10;7.07;;;;;;;;;;4943642;29;20047;-91
2023/08/20 01:01:01;;;;;;;26.13;6.78;;;;;;;;;;4944125;29;20111;-89
2023/08/20 01:03:30;;;;;;;9.68;5.72;;;;;;;;;;4941354;29;20074;-89
2023/08/20 01:06:13;;;;;;;15.02;6.38;;;;;;;;;;4930238;29;20059;-89
2023/08/20 01:08:46;;;;;;;17.95;6.95;;;;;;;;;;4943558;29;20067;-87
2023/08/20 01:11:24;;;;;;;17.98;7.80;;;;;;;;;;4937972;29;20381;-87
2023/08/20 01:13:55;;;;;;;17.73;8.20;;;;;;;;;;4944671;29;20062;-89
2023/08/20 01:16:32;;;;;;;18.13;8.75;;;;;;;;;;4943336;28;20048;-89
2023/08/20 01:19:03;;;;;;;26.85;14.75;;;;;;;;;;4942523;29;20055;-90
2023/08/20 01:22:02;;;;;;;21.05;10.25;;;;;;;;;;4938466;29;20055;-90
2023/08/20 01:24:35;;;;;;;22.40;10.23;;;;;;;;;;4941982;28;20051;-87
2023/08/20 01:27:23;;;;;;;23.73;11.20;;;;;;;;;;4945931;29;20052;-87
2023/08/20 01:29:53;;;;;;;18.35;10.38;;;;;;;;;;4922356;29;20052;-87
2023/08/20 01:32:24;;;;;;;19.20;11.35;;;;;;;;;;4943118;29;20119;-87
2023/08/20 01:34:56;;;;;;;19.85;9.70;;;;;;;;;;4943406;29;20461;-88
2023/08/20 01:37:27;;;;;;;27.38;12.07;;;;;;;;;;4938136;29;20087;-87
2023/08/20 01:39:56;;;;;;;26.15;12.25;;;;;;;;;;4918466;29;20071;-87
2023/08/20 01:42:56;;;;;;;21.50;10.88;;;;;;;;;;4940418;29;20047;-88
2023/08/20 01:45:31;;;;;;;21.88;10.63;;;;;;;;;;4943779;29;20066;-88
2023/08/20 01:48:03;;;;;;;19.45;10.48;;;;;;;;;;4944651;29;20111;-88
2023/08/20 01:50:50;;;;;;;18.25;10.63;;;;;;;;;;4950329;28;20035;-87
2023/08/20 01:53:23;;;;;;;15.82;9.77;;;;;;;;;;4948750;29;20080;-88
2023/08/20 01:55:52;;;;;;;18.95;9.88;;;;;;;;;;4950672;29;20075;-87
2023/08/20 01:58:21;;;;;;;22.23;11.95;;;;;;;;;;4950549;29;20231;-89
2023/08/20 02:00:57;;;;;;;22.67;11.98;;;;;;;;;;4950900;29;20052;-88
2023/08/20 02:03:25;;;;;;;18.50;10.05;;;;;;;;;;4951235;29;20046;-88
2023/08/20 02:05:53;;;;;;;18.08;10.90;;;;;;;;;;4950917;29;20039;-87
2023/08/20 02:08:21;;;;;;;23.70;11.27;;;;;;;;;;4950443;29;20044;-88
2023/08/20 02:11:07;;;;;;;32.85;14.15;;;;;;;;;;4949964;29;20342;-88
2023/08/20 02:13:37;;;;;;;31.77;14.77;;;;;;;;;;4950710;29;20051;-88
2023/08/20 02:16:12;;;;;;;29.05;12.95;;;;;;;;;;4951134;29;20047;-88
2023/08/20 02:18:39;;;;;;;19.95;13.13;;;;;;;;;;4951031;29;20100;-88
2023/08/20 02:21:13;;;;;;;21.42;12.15;;;;;;;;;;4950062;28;20106;-88
2023/08/20 02:23:45;;;;;;;26.08;12.43;;;;;;;;;;4948345;28;20075;-87
2023/08/20 02:26:17;;;;;;;19.15;10.35;;;;;;;;;;4951873;29;20051;-87
2023/08/20 02:28:45;;;;;;;30.13;13.73;;;;;;;;;;4953603;29;20302;-90
2023/08/20 02:31:13;;;;;;;22.38;12.88;;;;;;;;;;4956143;28;20039;-90
2023/08/20 02:33:41;;;;;;;21.52;12.05;;;;;;;;;;4959792;28;20044;-90
2023/08/20 02:36:09;;;;;;;23.52;13.70;;;;;;;;;;4956527;28;20052;-89
2023/08/20 02:38:36;;;;;;;24.40;13.60;;;;;;;;;;4952768;29;20095;-90
2023/08/20 02:41:12;;;;;;;19.30;12.38;;;;;;;;;;4952829;29;20090;-90
2023/08/20 02:43:39;;;;;;;24.20;13.02;;;;;;;;;;4952332;29;20058;-90
2023/08/20 02:46:08;;;;;;;19.30;12.13;;;;;;;;;;4952136;29;20431;-89
2023/08/20 02:48:36;;;;;;;20.05;12.30;;;;;;;;;;4951919;29;20090;-89
2023/08/20 02:51:05;;;;;;;23.92;13.02;;;;;;;;;;4954456;29;20126;-90
2023/08/20 02:53:38;;;;;;;21.48;11.57;;;;;;;;;;4954828;28;20055;-89
2023/08/20 02:56:06;;;;;;;19.58;12.02;;;;;;;;;;4951074;29;20361;-87
2023/08/20 02:58:43;;;;;;;17.67;11.00;;;;;;;;;;4947880;29;20064;-86
2023/08/20 03:01:20;;;;;;;19.45;11.57;;;;;;;;;;4948892;29;20055;-87
2023/08/20 03:03:54;;;;;;;18.73;10.65;;;;;;;;;;4946921;29;20159;-87
2023/08/20 03:06:27;;;;;;;20.08;11.32;;;;;;;;;;4950650;29;20428;-87
2023/08/20 03:09:09;;;;;;;18.40;10.55;;;;;;;;;;4947482;29;20431;-87
2023/08/20 03:11:39;;;;;;;19.63;11.38;;;;;;;;;;4946180;29;20332;-86
2023/08/20 03:14:19;;;;;;;23.70;10.77;;;;;;;;;;4946588;28;20402;-87
2023/08/20 03:16:55;;;;;;;20.33;10.48;;;;;;;;;;4948084;29;20071;-87
2023/08/20 03:19:33;;;;;;;21.88;10.88;;;;;;;;;;4944039;29;20404;-87
2023/08/20 03:22:04;;;;;;;16.30;11.45;;;;;;;;;;4944387;29;20052;-87
2023/08/20 03:24:33;;;;;;;22.48;11.52;;;;;;;;;;4944720;29;20119;-87
2023/08/20 03:27:07;;;;;;;21.85;10.48;;;;;;;;;;4944443;29;20377;-87
2023/08/20 03:29:39;;;;;;;15.75;9.95;;;;;;;;;;4945540;29;20048;-87
2023/08/20 03:32:09;;;;;;;20.05;10.18;;;;;;;;;;4945876;29;20079;-89
2023/08/20 03:34:38;;;;;;;19.42;10.70;;;;;;;;;;4946512;29;20114;-90
2023/08/20 03:37:07;;;;;;;18.85;10.88;;;;;;;;;;4945314;28;20051;-90
2023/08/20 03:39:42;;;;;;;16.85;9.88;;;;;;;;;;4946743;29;20048;-90
2023/08/20 03:42:10;;;;;;;18.50;10.47;;;;;;;;;;4947469;29;20086;-90
2023/08/20 03:44:43;;;;;;;19.85;10.93;;;;;;;;;;4948393;29;21101;-90
2023/08/20 03:47:21;;;;;;;15.68;9.30;;;;;;;;;;4947401;28;20083;-90
2023/08/20 03:49:50;;;;;;;20.08;10.27;;;;;;;;;;4945712;29;20056;-90
2023/08/20 03:52:19;;;;;;;27.10;11.35;;;;;;;;;;4945492;29;20062;-90
2023/08/20 03:54:50;;;;;;;20.40;10.75;;;;;;;;;;4945410;29;20083;-90
2023/08/20 03:57:18;;;;;;;16.92;9.63;;;;;;;;;;4949332;29;20056;-90
2023/08/20 03:59:47;;;;;;;15.13;8.82;;;;;;;;;;4979180;28;20367;-90
2023/08/20 04:02:17;;;;;;;21.13;9.75;;;;;;;;;;4964195;29;20059;-89
2023/08/20 04:04:46;;;;;;;15.13;9.80;;;;;;;;;;4967346;29;20103;-89
2023/08/20 04:07:15;;;;;;;23.05;10.77;;;;;;;;;;4965662;29;20106;-90
2023/08/20 04:09:43;;;;;;;17.98;9.70;;;;;;;;;;4951115;29;20078;-90
2023/08/20 04:12:12;;;;;;;15.48;9.55;;;;;;;;;;4982401;28;20316;-89
2023/08/20 04:14:40;;;;;;;22.17;11.23;;;;;;;;;;4967315;29;20315;-90
2023/08/20 04:17:09;;;;;;;18.17;10.18;;;;;;;;;;4953245;28;20075;-89
2023/08/20 04:19:37;;;;;;;17.13;9.38;;;;;;;;;;4953336;28;20065;-90
2023/08/20 04:22:08;;;;;;;14.02;9.05;;;;;;;;;;4954029;28;20047;-90
2023/08/20 04:24:36;;;;;;;22.63;9.95;;;;;;;;;;4954359;29;20058;-90
2023/08/20 04:30:23;;;;;;;20.70;11.63;;;;;;;;;;4962653;29;20059;-90
2023/08/20 04:32:54;;;;;;;24.83;11.85;;;;;;;;;;4956396;28;20082;-91
2023/08/20 04:35:29;;;;;;;19.80;11.50;;;;;;;;;;4956235;28;20055;-90
2023/08/20 04:37:58;;;;;;;21.10;11.15;;;;;;;;;;4974652;29;20062;-92
2023/08/20 04:40:27;;;;;;;22.48;11.75;;;;;;;;;;4973946;29;20113;-90
2023/08/20 04:42:56;;;;;;;17.20;10.02;;;;;;;;;;4955725;28;20051;-89
2023/08/20 04:45:38;;;;;;;18.45;10.75;;;;;;;;;;4954403;29;20114;-88
2023/08/20 04:48:09;;;;;;;25.65;11.25;;;;;;;;;;4954326;29;20227;-88
2023/08/20 04:50:43;;;;;;;25.65;12.23;;;;;;;;;;4953229;29;20079;-88
2023/08/20 04:53:24;;;;;;;23.00;12.07;;;;;;;;;;4955345;29;20058;-87
2023/08/20 04:56:01;;;;;;;23.65;11.93;;;;;;;;;;4953950;29;20058;-87
2023/08/20 04:58:47;;;;;;;21.45;11.45;;;;;;;;;;4955463;28;20257;-87
2023/08/20 05:01:35;;;;;;;21.45;10.77;;;;;;;;;;4968810;29;20107;-89
2023/08/20 05:04:04;;;;;;;;;;;;;;;;;;4954335;29;20134;-88
2023/08/20 05:06:50;;;;;;;16.65;9.30;;;;;;;;;;4968562;29;19933;-88
2023/08/20 05:09:25;;;;;;;17.00;11.25;;;;;;;;;;4960756;29;20082;-87
2023/08/20 05:12:10;;;;;;;20.65;11.20;;;;;;;;;;4961367;28;20070;-88
2023/08/20 05:14:51;;;;;;;21.90;12.23;;;;;;;;;;4959513;28;20058;-87
2023/08/20 05:17:24;;;;;;;19.23;11.52;;;;;;;;;;4957139;29;20078;-88
2023/08/20 05:20:09;;;;;;;18.92;11.57;;;;;;;;;;4956773;29;20292;-88
2023/08/20 05:22:42;;;;;;;18.27;11.02;;;;;;;;;;4956170;29;20110;-88
2023/08/20 05:25:11;;;;;;;20.30;11.20;;;;;;;;;;4955681;28;20059;-88
2023/08/20 05:27:44;;;;;;;24.48;12.57;;;;;;;;;;4951121;29;20210;-87
2023/08/20 05:30:13;;;;;;;18.42;11.50;;;;;;;;;;4950630;29;20541;-87
2023/08/20 05:32:45;;;;;;;21.15;10.07;;;;;;;;;;4950687;29;20063;-88
2023/08/20 05:35:22;;;;;;;13.77;9.18;;;;;;;;;;4951290;29;20082;-87
2023/08/20 05:37:56;;;;;;;15.35;8.23;;;;;;;;;;4953632;29;20065;-90
2023/08/20 05:40:26;;;;;;;14.00;8.20;;;;;;;;;;4950924;29;20065;-90
2023/08/20 05:43:01;;;;;;;11.35;6.75;;;;;;;;;;4966442;29;20142;-90
2023/08/20 05:45:29;;;;;;;13.35;7.32;;;;;;;;;;4966171;29;20074;-89
2023/08/20 05:47:59;;;;;;;11.88;6.75;;;;;;;;;;4950027;28;20106;-90
2023/08/20 05:50:27;;;;;;;13.63;6.85;;;;;;;;;;4950114;28;20099;-89
2023/08/20 05:52:55;;;;;;;10.25;6.00;;;;;;;;;;4966377;28;20071;-89
2023/08/20 05:55:24;;;;;;;7.80;5.43;;;;;;;;;;4977137;28;20090;-89
2023/08/20 05:57:53;;;;;;;8.50;5.50;;;;;;;;;;4962591;29;20066;-88
2023/08/20 06:00:26;;;;;;;14.75;5.35;;;;;;;;;;4984988;28;20451;-89
2023/08/20 06:02:55;;;;;;;8.63;5.32;;;;;;;;;;4949943;29;20149;-90
2023/08/20 06:05:25;;;;;;;10.82;5.07;;;;;;;;;;4950519;29;20055;-88
2023/08/20 06:08:01;;;;;;;9.27;4.85;;;;;;;;;;4950310;28;20094;-88
2023/08/20 06:10:29;;;;;;;12.05;4.88;;;;;;;;;;4967768;29;20116;-88
2023/08/20 06:13:01;;;;;;;8.60;4.72;;;;;;;;;;4966779;29;20106;-88
2023/08/20 06:15:30;;;;;;;5.35;3.92;;;;;;;;;;4981863;28;20039;-88
2023/08/20 06:18:01;;;;;;;7.75;4.20;;;;;;;;;;4968495;28;20086;-89
2023/08/20 06:20:33;;;;;;;10.85;4.30;;;;;;;;;;4965783;29;20110;-88
2023/08/20 06:23:04;;;;;;;9.18;3.88;;;;;;;;;;4947847;29;20110;-89
2023/08/20 06:25:33;;;;;;;11.00;4.00;;;;;;;;;;4967469;29;20079;-89
2023/08/20 06:28:04;;;;;;;9.07;3.97;;;;;;;;;;4948512;29;20066;-89
2023/08/20 06:30:51;;;;;;;10.13;3.63;;;;;;;;;;4950547;29;20054;-89
2023/08/20 06:33:19;;;;;;;9.35;3.53;;;;;;;;;;4964720;29;20051;-89
2023/08/20 06:35:47;;;;;;;6.68;3.47;;;;;;;;;;4950128;29;20069;-89
2023/08/20 06:38:28;;;;;;;7.80;3.20;;;;;;;;;;4951128;29;20055;-88
2023/08/20 06:40:56;;;;;;;11.95;2.80;;;;;;;;;;4950746;29;20062;-89
2023/08/20 06:43:24;;;;;;;7.82;3.15;;;;;;;;;;4951651;29;20066;-88
2023/08/20 06:46:07;;;;;;;11.65;3.33;;;;;;;;;;4954787;29;20130;-89
2023/08/20 06:48:47;;;;;;;7.15;2.78;;;;;;;;;;4971561;29;20094;-89
2023/08/20 06:51:25;;;;;;;6.95;2.72;;;;;;;;;;4955187;28;20130;-89
2023/08/20 06:53:59;;;;;;;6.10;2.90;;;;;;;;;;4971054;28;20138;-88
2023/08/20 06:56:36;;;;;;;5.47;2.38;;;;;;;;;;4953546;28;20051;-89
2023/08/20 06:59:31;;;;;;;7.18;2.55;;;;;;;;;;4968075;29;20055;-89
2023/08/20 07:02:05;;;;;;;6.75;2.20;;;;;;;;;;4970142;29;20073;-89
2023/08/20 07:04:45;;;;;;;;;;;;;;;;;;;;;
2023/08/20 07:07:17;;;;;;;6.07;2.15;;;;;;;;;;4970186;29;20079;-89
2023/08/20 07:09:53;;;;;;;6.13;2.05;;;;;;;;;;4954529;29;20051;-90
2023/08/20 07:12:29;;;;;;;3.53;1.85;;;;;;;;;;4953074;29;20055;-90
2023/08/20 07:15:01;;;;;;;5.40;1.92;;;;;;;;;;4950578;29;20051;-89
2023/08/20 07:17:29;;;;;;;9.05;2.20;;;;;;;;;;4953083;29;20158;-90
2023/08/20 07:20:07;;;;;;;7.38;2.28;;;;;;;;;;4968308;29;20061;-89
2023/08/20 07:22:37;;;;;;;7.78;2.47;;;;;;;;;;4969273;29;20081;-88
2023/08/20 07:25:08;;;;;;;5.22;1.60;;;;;;;;;;4968726;29;20193;-89
2023/08/20 07:27:43;;;;;;;5.35;1.52;;;;;;;;;;4954233;29;20048;-90
2023/08/20 07:30:21;;;;;;;5.22;1.67;;;;;;;;;;4968449;29;20078;-90
2023/08/20 07:32:51;;;;;;;7.40;1.70;;;;;;;;;;4953405;29;20065;-89
2023/08/20 07:35:23;;;;;;;5.60;1.85;;;;;;;;;;4952200;29;20043;-90
2023/08/20 07:37:56;;;;;;;7.10;1.77;;;;;;;;;;4952907;29;20066;-90
2023/08/20 07:40:24;;;;;;;7.13;1.98;;;;;;;;;;4968982;29;20055;-90
2023/08/20 07:43:11;;;;;;;10.80;2.13;;;;;;;;;;4952810;29;20130;-89
2023/08/20 07:45:39;;;;;;;5.97;1.30;;;;;;;;;;4951616;29;20395;-89
2023/08/20 07:51:57;;;;;;;8.70;1.52;;;;;;;;;;4972041;29;20038;-90
2023/08/20 07:57:55;;;;;;;5.88;1.63;;;;;;;;;;4971844;29;20404;-89
2023/08/20 08:00:30;;;;;;;7.28;1.88;;;;;;;;;;4968345;29;20062;-89
2023/08/20 08:03:21;;;;;;;4.88;1.30;;;;;;;;;;4954376;29;20039;-89
2023/08/20 08:06:13;;;;;;;7.30;1.55;;;;;;;;;;4953232;29;20051;-91
2023/08/20 08:09:23;;;;;;;5.25;1.40;;;;;;;;;;4969318;29;20063;-91
2023/08/20 08:11:52;;;;;;;6.28;1.40;;;;;;;;;;4972324;29;20090;-90
2023/08/20 08:14:41;;;;;;;7.80;1.23;;;;;;;;;;4966891;28;20157;-91
2023/08/20 08:17:22;;;;;;;6.55;1.73;;;;;;;;;;4948866;29;20074;-90
2023/08/20 08:19:53;;;;;;;5.88;1.20;;;;;;;;;;4947658;29;20051;-90
2023/08/20 08:22:24;;;;;;;7.65;1.58;;;;;;;;;;4945959;29;20089;-90
2023/08/20 08:24:53;;;;;;;7.95;1.40;;;;;;;;;;4946874;29;20065;-90
2023/08/20 08:27:20;;;;;;;7.03;1.75;;;;;;;;;;4947164;29;20114;-89
2023/08/20 08:30:17;;;;;;;5.85;1.65;;;;;;;;;;4948575;29;20051;-89
2023/08/20 08:32:48;;;;;;;7.07;1.80;;;;;;;;;;4945606;29;20145;-90
2023/08/20 08:35:21;;;;;;;8.35;1.10;;;;;;;;;;4963562;28;20082;-90
2023/08/20 08:37:57;;;;;;;9.82;1.73;;;;;;;;;;4948089;29;20047;-90
2023/08/20 08:40:32;;;;;;;7.28;1.27;;;;;;;;;;4962718;29;20051;-90
2023/08/20 08:43:16;;;;;;;9.65;1.92;;;;;;;;;;4962518;29;20662;-89
2023/08/20 08:45:54;;;;;;;6.78;1.38;;;;;;;;;;4963635;28;20419;-90
2023/08/20 08:48:30;;;;;;;2.70;1.00;;;;;;;;;;4945768;29;20550;-90
2023/08/20 08:51:01;;;;;;;5.10;1.10;;;;;;;;;;4944722;29;20140;-90
2023/08/20 08:54:02;;;;;;;5.78;1.25;;;;;;;;;;4945518;29;20566;-89
2023/08/20 08:56:45;;;;;;;11.38;1.90;;;;;;;;;;4975996;28;20047;-89
2023/08/20 08:59:28;;;;;;;6.78;2.17;;;;;;;;;;4942385;29;20047;-90
2023/08/20 09:02:01;;;;;;;8.85;1.85;;;;;;;;;;4942229;29;20396;-90
2023/08/20 09:04:40;;;;;;;4.68;1.58;;;;;;;;;;4946051;29;20371;-90
2023/08/20 09:07:24;;;;;;;8.45;1.80;;;;;;;;;;4938540;29;20048;-90
2023/08/20 09:10:00;;;;;;;6.40;1.30;;;;;;;;;;4921690;29;20098;-90
2023/08/20 09:12:57;;;;;;;5.88;1.48;;;;;;;;;;4951891;28;20081;-91
2023/08/20 09:15:35;;;;;;;6.97;1.67;;;;;;;;;;4935823;29;20425;-90
2023/08/20 09:18:09;;;;;;;5.88;1.60;;;;;;;;;;4934114;28;20411;-90
2023/08/20 09:20:44;;;;;;;7.30;2.10;;;;;;;;;;4937960;29;20323;-89
2023/08/20 09:23:31;;;;;;;6.75;1.65;;;;;;;;;;4922732;29;20055;-91
2023/08/20 09:26:05;;;;;;;9.32;1.88;;;;;;;;;;4939482;28;20048;-90
2023/08/20 09:28:49;;;;;;;6.47;1.50;;;;;;;;;;4950168;28;20111;-91
2023/08/20 09:31:20;;;;;;;8.38;1.75;;;;;;;;;;4947835;28;20120;-90
2023/08/20 09:33:55;;;;;;;7.15;1.52;;;;;;;;;;4947789;29;20109;-89
2023/08/20 09:36:42;;;;;;;6.47;1.80;;;;;;;;;;4947582;29;20321;-90
2023/08/20 09:39:32;;;;;;;6.10;1.70;;;;;;;;;;4945818;29;20047;-90
2023/08/20 09:42:13;;;;;;;6.90;1.70;;;;;;;;;;4944951;28;20056;-90
2023/08/20 09:44:59;;;;;;;8.63;1.65;;;;;;;;;;4944934;29;20070;-90
2023/08/20 09:47:29;;;;;;;7.20;1.45;;;;;;;;;;4945429;29;20071;-90
2023/08/20 09:50:01;;;;;;;9.20;2.08;;;;;;;;;;4945888;29;20071;-90
2023/08/20 09:52:58;;;;;;;7.22;1.73;;;;;;;;;;4943646;29;20228;-90
2023/08/20 09:59:30;;;;;;;6.88;1.73;;;;;;;;;;4965830;28;20057;-90
2023/08/20 10:07:34;;;;;;;;;;;;;;;;;;4960059;23;20047;-89
2023/08/20 10:10:36;;;;;;;4.88;1.80;;;;;;;;;;4994947;28;19910;-92
2023/08/20 10:13:14;;;;;;;7.32;2.03;;;;;;;;;;4976241;28;20065;-91
2023/08/20 10:15:55;;;;;;;11.02;2.50;;;;;;;;;;4975721;28;20053;-91
2023/08/20 10:18:44;;;;;;;5.78;2.50;;;;;;;;;;4975707;28;20066;-90
2023/08/20 10:21:38;;;;;;;12.02;2.40;;;;;;;;;;4972688;28;20043;-88
2023/08/20 10:24:20;;;;;;;7.13;1.73;;;;;;;;;;5004627;28;20115;-88
2023/08/20 10:30:25;;;;;;;7.72;2.20;;;;;;;;;;4974073;28;20067;-90
2023/08/20 10:33:19;;;;;;;7.57;2.47;;;;;;;;;;4991161;28;20063;-91
2023/08/20 10:35:47;;;;;;;9.02;2.85;;;;;;;;;;4985140;28;20151;-92
2023/08/20 10:38:35;;;;;;;6.05;2.53;;;;;;;;;;4958285;29;20091;-91
2023/08/20 10:41:12;;;;;;;7.07;2.25;;;;;;;;;;4956616;29;20528;-92
2023/08/20 10:43:47;;;;;;;11.13;2.58;;;;;;;;;;4962087;29;20133;-90
2023/08/20 10:46:18;;;;;;;8.00;2.17;;;;;;;;;;4962131;28;20061;-91
2023/08/20 10:48:49;;;;;;;9.90;2.53;;;;;;;;;;4991007;28;20047;-91
2023/08/20 10:51:17;;;;;;;6.03;1.98;;;;;;;;;;4961434;28;20070;-91
2023/08/20 10:54:21;;;;;;;7.05;2.08;;;;;;;;;;4963320;29;20234;-90
2023/08/20 10:57:04;;;;;;;11.55;1.90;;;;;;;;;;4990427;28;20118;-91
2023/08/20 10:59:45;;;;;;;6.22;2.08;;;;;;;;;;4962272;29;20075;-91
2023/08/20 11:02:18;;;;;;;9.23;1.92;;;;;;;;;;4960271;28;20051;-90
2023/08/20 11:04:50;;;;;;;7.50;2.17;;;;;;;;;;4959097;29;20074;-91
2023/08/20 11:07:19;;;;;;;6.82;1.95;;;;;;;;;;4959394;29;20054;-91
2023/08/20 11:10:13;;;;;;;8.02;2.85;;;;;;;;;;4989380;28;20051;-91
2023/08/20 11:12:45;;;;;;;5.32;1.70;;;;;;;;;;4962150;29;20055;-91
2023/08/20 11:18:01;;;;;;;;;;;;;;;;;;5210473;23;20060;-94
2023/08/20 11:20:40;;;;;;;5.22;1.50;;;;;;;;;;4901786;29;19954;-90
2023/08/20 11:23:10;;;;;;;9.52;2.17;;;;;;;;;;4894799;29;20131;-87
2023/08/20 11:25:49;;;;;;;5.70;2.00;;;;;;;;;;4886075;29;20306;-87
2023/08/20 11:28:30;;;;;;;9.77;2.20;;;;;;;;;;4888760;29;20296;-88
2023/08/20 11:34:11;;;;;;;5.30;1.73;;;;;;;;;;4900619;29;20077;-88
2023/08/20 11:37:23;;;;;;;8.98;1.90;;;;;;;;;;4902468;29;20079;-88
2023/08/20 11:40:18;;;;;;;7.88;1.98;;;;;;;;;;4885625;29;20060;-87
2023/08/20 11:43:01;;;;;;;10.38;2.33;;;;;;;;;;4892097;29;20057;-88
2023/08/20 11:45:47;;;;;;;8.70;2.10;;;;;;;;;;4897630;29;20119;-88
2023/08/20 11:48:24;;;;;;;5.35;1.75;;;;;;;;;;4897247;29;20104;-88
2023/08/20 11:50:58;;;;;;;11.35;1.65;;;;;;;;;;4914089;29;20049;-87
2023/08/20 11:53:31;;;;;;;7.47;1.40;;;;;;;;;;4898776;29;20156;-88
2023/08/20 11:56:14;;;;;;;4.35;1.73;;;;;;;;;;4912918;29;20040;-87
2023/08/20 11:58:57;;;;;;;5.78;1.50;;;;;;;;;;5039944;23;21282;-88
2023/08/20 12:01:48;;;;;;;6.50;2.13;;;;;;;;;;4948268;28;20040;-88
2023/08/20 12:04:42;;;;;;;6.00;1.98;;;;;;;;;;4933436;28;20047;-88
2023/08/20 12:07:26;;;;;;;8.75;1.63;;;;;;;;;;4934727;28;20050;-88
2023/08/20 12:10:32;;;;;;;6.80;1.60;;;;;;;;;;4933768;29;20051;-88
2023/08/20 12:13:15;;;;;;;10.40;1.38;;;;;;;;;;4936569;28;20040;-88
2023/08/20 12:15:56;;;;;;;10.93;1.63;;;;;;;;;;4933545;29;20047;-88
2023/08/20 12:18:35;;;;;;;6.05;1.70;;;;;;;;;;4933630;29;20063;-89
2023/08/20 12:21:20;;;;;;;4.40;1.45;;;;;;;;;;4945348;28;20114;-88
2023/08/20 12:24:25;;;;;;;8.18;1.77;;;;;;;;;;4947220;29;20056;-88
2023/08/20 12:27:27;;;;;;;7.03;2.40;;;;;;;;;;4930514;29;20050;-89
2023/08/20 12:30:09;;;;;;;4.20;1.20;;;;;;;;;;4932660;29;20226;-89
2023/08/20 12:32:42;;;;;;;5.45;1.50;;;;;;;;;;4928936;29;20116;-88
2023/08/20 12:35:31;;;;;;;6.97;1.55;;;;;;;;;;4931640;29;20380;-89
2023/08/20 12:38:16;;;;;;;5.72;1.20;;;;;;;;;;4929970;29;20035;-89
2023/08/20 12:41:17;;;;;;;5.15;1.80;;;;;;;;;;4930920;29;20043;-89
2023/08/20 12:44:21;;;;;;;6.45;1.45;;;;;;;;;;4942276;29;20336;-88
2023/08/20 12:47:06;;;;;;;7.10;1.48;;;;;;;;;;4932103;29;20043;-88
2023/08/20 12:49:55;;;;;;;8.13;1.77;;;;;;;;;;4927473;29;20048;-89
2023/08/20 12:52:50;;;;;;;5.85;1.63;;;;;;;;;;4931915;29;20053;-88
2023/08/20 12:55:34;;;;;;;3.70;1.40;;;;;;;;;;4927197;29;20067;-88
2023/08/20 12:58:19;;;;;;;5.45;1.95;;;;;;;;;;4929972;29;20098;-89
2023/08/20 13:00:58;;;;;;;6.00;1.42;;;;;;;;;;4942787;29;20122;-89
2023/08/20 13:03:40;;;;;;;5.07;1.58;;;;;;;;;;4946921;29;20038;-88
2023/08/20 13:06:20;;;;;;;5.00;1.60;;;;;;;;;;4959410;29;20047;-88
2023/08/20 13:12:18;;;;;;;3.40;1.70;;;;;;;;;;4959058;29;20077;-89
2023/08/20 13:15:15;;;;;;;4.53;1.20;;;;;;;;;;4947352;29;20043;-89
2023/08/20 13:18:24;;;;;;;5.97;1.67;;;;;;;;;;4940700;29;20316;-89
2023/08/20 13:21:10;;;;;;;7.45;1.40;;;;;;;;;;4942062;29;20055;-89
2023/08/20 13:23:56;;;;;;;4.65;1.00;;;;;;;;;;4957438;29;20126;-89
2023/08/20 13:26:27;;;;;;;7.70;1.48;;;;;;;;;;4939928;29;20055;-89
2023/08/20 13:28:58;;;;;;;6.18;1.50;;;;;;;;;;4958651;29;20128;-89
2023/08/20 13:31:35;;;;;;;3.50;1.30;;;;;;;;;;4961648;29;20117;-88
2023/08/20 13:34:24;;;;;;;6.15;1.65;;;;;;;;;;4946058;29;20146;-88
2023/08/20 13:37:35;;;;;;;;;;;;;;;;;;;;;
2023/08/20 13:40:21;;;;;;;4.78;1.48;;;;;;;;;;4954924;29;20078;-88
2023/08/20 13:43:15;;;;;;;5.88;1.42;;;;;;;;;;4956991;29;20035;-90
2023/08/20 13:49:06;;;;;;;7.55;1.83;;;;;;;;;;4943453;28;20058;-92
2023/08/20 13:51:53;;;;;;;2.72;1.20;;;;;;;;;;4947196;29;20336;-91
2023/08/20 13:54:29;;;;;;;4.47;1.63;;;;;;;;;;4940128;28;20135;-91
2023/08/20 13:57:13;;;;;;;5.90;1.25;;;;;;;;;;4917655;29;20086;-91
2023/08/20 14:00:12;;;;;;;2.63;1.20;;;;;;;;;;4940709;29;20087;-88
2023/08/20 14:03:35;;;;;;;3.17;1.38;;;;;;;;;;4939976;29;20090;-87
2023/08/20 14:06:36;;;;;;;4.07;1.30;;;;;;;;;;4938661;29;20178;-86
2023/08/20 14:09:12;;;;;;;5.05;1.27;;;;;;;;;;4933394;29;20052;-88
2023/08/20 14:43:55;;;;;;;5.68;1.13;;;;;;;;;;4940061;29;20052;-90
2023/08/20 14:46:36;;;;;;;9.00;1.52;;;;;;;;;;4940649;29;20060;-91
2023/08/20 14:49:18;;;;;;;3.25;1.27;;;;;;;;;;4929028;29;20131;-90
2023/08/20 14:51:56;;;;;;;4.97;1.35;;;;;;;;;;4929738;29;20078;-90
2023/08/20 14:55:09;;;;;;;3.63;1.23;;;;;;;;;;4930831;29;20134;-90
2023/08/20 14:57:48;;;;;;;6.18;1.52;;;;;;;;;;4927840;29;20071;-90
2023/08/20 15:00:22;;;;;;;5.43;1.40;;;;;;;;;;4926573;29;20115;-90
2023/08/20 15:02:59;;;;;;;5.27;1.17;;;;;;;;;;4931643;29;20152;-90
2023/08/20 15:05:28;;;;;;;4.10;1.08;;;;;;;;;;4930099;29;20255;-90
2023/08/20 15:07:58;;;;;;;2.58;1.15;;;;;;;;;;4953500;29;20039;-89
2023/08/20 15:10:30;;;;;;;4.65;1.38;;;;;;;;;;4951488;29;20058;-91
2023/08/20 15:13:14;;;;;;;2.95;1.13;;;;;;;;;;4924415;29;20069;-89
2023/08/20 15:15:59;;;;;;;3.50;1.02;;;;;;;;;;4943306;29;20099;-90
2023/08/20 15:18:43;;;;;;;3.70;1.08;;;;;;;;;;4928337;29;20110;-90
2023/08/20 15:21:24;;;;;;;4.28;1.60;;;;;;;;;;4930683;29;20059;-91
2023/08/20 15:23:52;;;;;;;5.40;1.35;;;;;;;;;;4930225;29;20123;-90
2023/08/20 15:26:29;;;;;;;6.65;1.05;;;;;;;;;;4928823;29;20235;-90
2023/08/20 15:29:01;;;;;;;5.72;1.15;;;;;;;;;;4928421;29;20111;-90
2023/08/20 15:31:35;;;;;;;3.28;1.17;;;;;;;;;;4944317;29;20111;-91
2023/08/20 15:34:16;;;;;;;1.85;0.80;;;;;;;;;;4926179;29;20063;-91
2023/08/20 15:36:49;;;;;;;4.80;1.00;;;;;;;;;;4928939;29;20036;-90
2023/08/20 15:39:21;;;;;;;;;;;;;;;;;;4944998;29;20230;-89
2023/08/20 15:41:50;;;;;;;3.13;0.95;;;;;;;;;;4927088;29;19930;-90
2023/08/20 15:44:24;;;;;;;5.30;1.27;;;;;;;;;;4927522;29;20084;-92
2023/08/20 15:46:54;;;;;;;4.97;0.70;;;;;;;;;;4946537;29;20079;-90
2023/08/20 15:49:30;;;;;;;9.65;1.10;;;;;;;;;;4944243;29;20106;-90
2023/08/20 15:52:04;;;;;;;2.83;0.75;;;;;;;;;;4946133;29;20048;-90
2023/08/20 15:54:39;;;;;;;3.03;1.00;;;;;;;;;;4945298;29;20067;-90
2023/08/20 15:57:11;;;;;;;3.47;0.60;;;;;;;;;;4926089;29;20056;-90
2023/08/20 15:59:45;;;;;;;1.80;0.75;;;;;;;;;;4944130;29;20056;-91
2023/08/20 16:02:13;;;;;;;1.85;0.80;;;;;;;;;;4945484;29;20307;-91
2023/08/20 16:04:56;;;;;;;;;;;;;;;;;;;;;
2023/08/20 16:07:37;;;;;;;1.25;0.47;;;;;;;;;;4943579;29;20071;-91
2023/08/20 16:10:36;;;;;;;3.67;0.60;;;;;;;;;;4932220;29;20050;-90
2023/08/20 16:16:45;;;;;;;4.38;0.95;;;;;;;;;;4891495;29;20052;-90
2023/08/20 16:19:39;;;;;;;2.28;0.80;;;;;;;;;;4878602;29;20061;-91
2023/08/20 16:25:38;;;;;;;3.40;0.98;;;;;;;;;;4918402;29;20034;-90
2023/08/20 16:28:12;;;;;;;10.45;6.10;;;;;;;;;;4922925;29;20423;-90
2023/08/20 16:30:46;;;;;;;3.90;1.33;;;;;;;;;;4923100;29;20113;-91
2023/08/20 16:33:27;;;;;;;2.70;0.60;;;;;;;;;;4935996;29;20167;-89
2023/08/20 16:36:01;;;;;;;3.25;0.60;;;;;;;;;;4919344;29;20419;-89
2023/08/20 16:38:45;;;;;;;1.83;0.50;;;;;;;;;;4918609;29;20078;-89
2023/08/20 16:41:13;;;;;;;1.25;0.52;;;;;;;;;;4917170;29;20253;-89
2023/08/20 16:43:55;;;;;;;5.32;0.88;;;;;;;;;;4946721;29;20043;-90
2023/08/20 16:50:15;;;;;;;6.93;2.42;;;;;;;;;;4935402;29;20051;-91
2023/08/20 16:53:10;;;;;;;12.77;6.45;;;;;;;;;;4943451;29;20057;-91
2023/08/20 16:55:55;;;;;;;4.90;1.47;;;;;;;;;;4918419;29;20281;-90